Creek Data

    Home     View Charts     View Raw Data     Messages

ID Distance Battery Voltage Battery Current Internal Temp Internal Humidity External Temp Solar Input rssi snr Time Stamp Record
66546 13.1 3.86 0 46 51 46 5.1 -69 8 02/17/2026 03:00 PM 49366
66545 13.1 3.85 0 47 51 46 5.1 -67 8 02/17/2026 02:45 PM 49365
66544 13.1 3.85 0 47 51 46 5.1 -70 9 02/17/2026 02:30 PM 49364
66543 13.1 3.85 0 47 51 47 5.1 -69 8 02/17/2026 02:15 PM 49363
66542 13.2 3.86 0 47 50 47 5.1 -69 8 02/17/2026 01:45 PM 49361
66541 13.2 3.91 0 46 50 46 5.1 -69 8 02/17/2026 01:30 PM 49360
66540 13.2 3.86 0 46 50 46 5.1 -73 7 02/17/2026 01:15 PM 49359
66539 13.2 3.93 15 45 51 45 4.5 -71 8 02/17/2026 12:45 PM 49357
66538 13.2 3.89 0 45 51 45 4.5 -71 8 02/17/2026 12:30 PM 49356
66537 13.2 3.96 36 45 51 45 4.5 -72 7 02/17/2026 12:15 PM 49355
66536 13.3 3.76 0 45 51 45 4.5 -73 8 02/17/2026 12:00 PM 49354
66535 13.3 3.87 0 45 51 45 4.5 -74 7 02/17/2026 11:45 AM 49353
66534 13.3 3.97 9 45 50 46 4.5 -76 8 02/17/2026 11:30 AM 49352
66533 13.3 3.75 0 45 50 46 4.5 -74 8 02/17/2026 11:15 AM 49351
66532 13.4 3.94 7 45 50 45 4.5 -75 7 02/17/2026 11:00 AM 49350
66531 13.4 4.04 9 45 50 45 4.5 -75 7 02/17/2026 10:45 AM 49349
66530 13.4 3.95 8 44 50 45 4.5 -75 8 02/17/2026 10:30 AM 49348
66529 13.4 3.70 0 44 50 45 4.5 -75 8 02/17/2026 10:15 AM 49347
66528 13.4 3.70 0 44 50 44 4.5 -74 8 02/17/2026 10:00 AM 49346
66527 13.5 3.70 -5 43 51 44 4.5 -75 8 02/17/2026 09:45 AM 49345
66526 13.5 3.74 0 43 51 44 4.5 -74 9 02/17/2026 09:30 AM 49344
66525 13.5 3.89 0 42 51 43 4.5 -75 7 02/17/2026 09:15 AM 49343
66524 13.5 3.71 -5 42 52 42 4.5 -76 8 02/17/2026 09:00 AM 49342
66523 13.6 3.72 -7 42 52 41 4.5 -76 8 02/17/2026 08:45 AM 49341
66522 31.8 3.72 -9 44 51 45 4.5 -76 8 02/17/2026 08:30 AM 49340